sensor_id;sensor_type;location;lat;lon;timestamp;temperature;humidity
70154;DHT22;57519;51.494;-2.626;2023-03-09T00:00:53;1.36;95.46
70154;DHT22;57519;51.494;-2.626;2023-03-09T00:03:19;1.38;95.56
70154;DHT22;57519;51.494;-2.626;2023-03-09T00:05:56;1.39;95.75
70154;DHT22;57519;51.494;-2.626;2023-03-09T00:08:22;1.36;95.82
70154;DHT22;57519;51.494;-2.626;2023-03-09T00:10:48;1.34;95.92
70154;DHT22;57519;51.494;-2.626;2023-03-09T00:13:18;1.32;95.96
70154;DHT22;57519;51.494;-2.626;2023-03-09T00:15:45;1.31;96.02
70154;DHT22;57519;51.494;-2.626;2023-03-09T00:18:17;1.36;96.11
70154;DHT22;57519;51.494;-2.626;2023-03-09T00:20:43;1.34;96.10
70154;DHT22;57519;51.494;-2.626;2023-03-09T00:23:09;1.29;96.13
70154;DHT22;57519;51.494;-2.626;2023-03-09T00:25:35;1.29;96.20
70154;DHT22;57519;51.494;-2.626;2023-03-09T00:28:01;1.29;96.26
70154;DHT22;57519;51.494;-2.626;2023-03-09T00:30:27;1.29;96.26
70154;DHT22;57519;51.494;-2.626;2023-03-09T00:32:53;1.22;96.22
70154;DHT22;57519;51.494;-2.626;2023-03-09T00:35:19;1.22;96.32
70154;DHT22;57519;51.494;-2.626;2023-03-09T00:37:44;1.25;96.42
70154;DHT22;57519;51.494;-2.626;2023-03-09T00:40:13;1.20;96.40
70154;DHT22;57519;51.494;-2.626;2023-03-09T00:42:44;1.22;96.39
70154;DHT22;57519;51.494;-2.626;2023-03-09T00:45:11;1.21;96.42
70154;DHT22;57519;51.494;-2.626;2023-03-09T00:47:37;1.20;96.48
70154;DHT22;57519;51.494;-2.626;2023-03-09T00:50:03;1.20;96.49
70154;DHT22;57519;51.494;-2.626;2023-03-09T00:52:29;1.21;96.64
70154;DHT22;57519;51.494;-2.626;2023-03-09T00:54:55;1.22;96.65
70154;DHT22;57519;51.494;-2.626;2023-03-09T00:57:21;1.20;96.75
70154;DHT22;57519;51.494;-2.626;2023-03-09T00:59:47;1.21;96.79
70154;DHT22;57519;51.494;-2.626;2023-03-09T01:02:12;1.18;96.62
70154;DHT22;57519;51.494;-2.626;2023-03-09T01:04:38;1.21;96.70
70154;DHT22;57519;51.494;-2.626;2023-03-09T01:07:04;1.24;96.76
70154;DHT22;57519;51.494;-2.626;2023-03-09T01:09:29;1.27;96.76
70154;DHT22;57519;51.494;-2.626;2023-03-09T01:11:55;1.25;96.72
70154;DHT22;57519;51.494;-2.626;2023-03-09T01:14:20;1.21;96.70
70154;DHT22;57519;51.494;-2.626;2023-03-09T01:16:46;1.20;96.62
70154;DHT22;57519;51.494;-2.626;2023-03-09T01:19:11;1.17;96.63
70154;DHT22;57519;51.494;-2.626;2023-03-09T01:21:37;1.17;96.60
70154;DHT22;57519;51.494;-2.626;2023-03-09T01:24:02;1.21;96.66
70154;DHT22;57519;51.494;-2.626;2023-03-09T01:26:28;1.20;96.65
70154;DHT22;57519;51.494;-2.626;2023-03-09T01:28:53;1.25;96.64
70154;DHT22;57519;51.494;-2.626;2023-03-09T01:31:19;1.24;96.67
70154;DHT22;57519;51.494;-2.626;2023-03-09T01:33:44;1.28;96.67
70154;DHT22;57519;51.494;-2.626;2023-03-09T01:36:14;1.25;96.66
70154;DHT22;57519;51.494;-2.626;2023-03-09T01:38:42;1.29;96.68
70154;DHT22;57519;51.494;-2.626;2023-03-09T01:41:08;1.32;96.64
70154;DHT22;57519;51.494;-2.626;2023-03-09T01:43:37;1.27;96.65
70154;DHT22;57519;51.494;-2.626;2023-03-09T01:49:16;1.28;96.62
70154;DHT22;57519;51.494;-2.626;2023-03-09T01:54:50;1.32;96.64
70154;DHT22;57519;51.494;-2.626;2023-03-09T01:57:36;1.36;96.67
70154;DHT22;57519;51.494;-2.626;2023-03-09T02:00:16;1.34;96.54
70154;DHT22;57519;51.494;-2.626;2023-03-09T02:02:48;1.32;96.56
70154;DHT22;57519;51.494;-2.626;2023-03-09T02:05:26;1.42;96.68
70154;DHT22;57519;51.494;-2.626;2023-03-09T02:07:56;1.41;96.74
70154;DHT22;57519;51.494;-2.626;2023-03-09T02:12:51;1.36;96.62
70154;DHT22;57519;51.494;-2.626;2023-03-09T02:15:23;1.36;96.60
70154;DHT22;57519;51.494;-2.626;2023-03-09T02:17:50;1.38;96.64
70154;DHT22;57519;51.494;-2.626;2023-03-09T02:20:36;1.36;96.68
70154;DHT22;57519;51.494;-2.626;2023-03-09T02:23:11;1.31;96.67
70154;DHT22;57519;51.494;-2.626;2023-03-09T02:25:56;1.34;96.70
70154;DHT22;57519;51.494;-2.626;2023-03-09T02:28:25;1.32;96.73
70154;DHT22;57519;51.494;-2.626;2023-03-09T02:30:51;1.36;96.69
70154;DHT22;57519;51.494;-2.626;2023-03-09T02:33:24;1.38;96.77
70154;DHT22;57519;51.494;-2.626;2023-03-09T02:35:56;1.35;96.73
70154;DHT22;57519;51.494;-2.626;2023-03-09T02:38:22;1.31;96.74
70154;DHT22;57519;51.494;-2.626;2023-03-09T02:40:48;1.34;96.75
70154;DHT22;57519;51.494;-2.626;2023-03-09T02:43:15;1.34;96.75
70154;DHT22;57519;51.494;-2.626;2023-03-09T02:45:41;1.31;96.73
70154;DHT22;57519;51.494;-2.626;2023-03-09T02:48:07;1.32;96.69
70154;DHT22;57519;51.494;-2.626;2023-03-09T02:50:32;1.36;96.76
70154;DHT22;57519;51.494;-2.626;2023-03-09T02:52:58;1.34;96.77
70154;DHT22;57519;51.494;-2.626;2023-03-09T02:55:26;1.35;96.85
70154;DHT22;57519;51.494;-2.626;2023-03-09T02:57:52;1.36;96.85
70154;DHT22;57519;51.494;-2.626;2023-03-09T03:00:18;1.42;96.83
70154;DHT22;57519;51.494;-2.626;2023-03-09T03:02:48;1.45;96.86
70154;DHT22;57519;51.494;-2.626;2023-03-09T03:05:14;1.49;96.87
70154;DHT22;57519;51.494;-2.626;2023-03-09T03:07:39;1.43;96.71
70154;DHT22;57519;51.494;-2.626;2023-03-09T03:10:06;1.39;96.67
70154;DHT22;57519;51.494;-2.626;2023-03-09T03:12:32;1.34;96.68
70154;DHT22;57519;51.494;-2.626;2023-03-09T03:14:57;1.34;96.57
70154;DHT22;57519;51.494;-2.626;2023-03-09T03:17:24;1.35;96.63
70154;DHT22;57519;51.494;-2.626;2023-03-09T03:19:50;1.34;96.65
70154;DHT22;57519;51.494;-2.626;2023-03-09T03:22:15;1.35;96.60
70154;DHT22;57519;51.494;-2.626;2023-03-09T03:24:42;1.34;96.43
70154;DHT22;57519;51.494;-2.626;2023-03-09T03:27:07;1.35;96.40
70154;DHT22;57519;51.494;-2.626;2023-03-09T03:29:33;1.39;96.40
70154;DHT22;57519;51.494;-2.626;2023-03-09T03:32:02;1.35;96.23
70154;DHT22;57519;51.494;-2.626;2023-03-09T03:34:28;1.38;96.25
70154;DHT22;57519;51.494;-2.626;2023-03-09T03:36:54;1.36;96.27
70154;DHT22;57519;51.494;-2.626;2023-03-09T03:39:19;1.36;96.32
70154;DHT22;57519;51.494;-2.626;2023-03-09T03:41:45;1.41;96.39
70154;DHT22;57519;51.494;-2.626;2023-03-09T03:44:11;1.39;96.33
70154;DHT22;57519;51.494;-2.626;2023-03-09T03:46:36;1.36;96.38
70154;DHT22;57519;51.494;-2.626;2023-03-09T03:49:02;1.32;96.10
70154;DHT22;57519;51.494;-2.626;2023-03-09T03:51:29;1.32;96.17
70154;DHT22;57519;51.494;-2.626;2023-03-09T03:53:54;1.34;96.27
70154;DHT22;57519;51.494;-2.626;2023-03-09T03:56:22;1.39;96.22
70154;DHT22;57519;51.494;-2.626;2023-03-09T03:58:48;1.41;96.13
70154;DHT22;57519;51.494;-2.626;2023-03-09T04:01:13;1.39;95.94
70154;DHT22;57519;51.494;-2.626;2023-03-09T04:03:38;1.43;95.76
70154;DHT22;57519;51.494;-2.626;2023-03-09T04:06:04;1.41;95.74
70154;DHT22;57519;51.494;-2.626;2023-03-09T04:08:31;1.41;95.70
70154;DHT22;57519;51.494;-2.626;2023-03-09T04:10:57;1.41;95.68
70154;DHT22;57519;51.494;-2.626;2023-03-09T04:13:23;1.38;95.52
70154;DHT22;57519;51.494;-2.626;2023-03-09T04:15:48;1.36;95.50
70154;DHT22;57519;51.494;-2.626;2023-03-09T04:18:14;1.41;95.67
70154;DHT22;57519;51.494;-2.626;2023-03-09T04:20:41;1.39;95.50
70154;DHT22;57519;51.494;-2.626;2023-03-09T04:23:10;1.41;95.48
70154;DHT22;57519;51.494;-2.626;2023-03-09T04:25:35;1.36;95.30
70154;DHT22;57519;51.494;-2.626;2023-03-09T04:28:01;1.36;95.26
70154;DHT22;57519;51.494;-2.626;2023-03-09T04:30:27;1.39;95.51
70154;DHT22;57519;51.494;-2.626;2023-03-09T04:32:54;1.39;95.48
70154;DHT22;57519;51.494;-2.626;2023-03-09T04:35:20;1.41;95.46
70154;DHT22;57519;51.494;-2.626;2023-03-09T04:37:47;1.36;95.59
70154;DHT22;57519;51.494;-2.626;2023-03-09T04:40:13;1.41;95.63
70154;DHT22;57519;51.494;-2.626;2023-03-09T04:42:39;1.38;95.65
70154;DHT22;57519;51.494;-2.626;2023-03-09T04:45:05;1.38;95.65
70154;DHT22;57519;51.494;-2.626;2023-03-09T04:47:31;1.35;95.70
70154;DHT22;57519;51.494;-2.626;2023-03-09T04:49:57;1.38;95.70
70154;DHT22;57519;51.494;-2.626;2023-03-09T04:52:24;1.36;95.51
70154;DHT22;57519;51.494;-2.626;2023-03-09T04:54:49;1.34;95.61
70154;DHT22;57519;51.494;-2.626;2023-03-09T04:57:15;1.35;95.77
70154;DHT22;57519;51.494;-2.626;2023-03-09T04:59:42;1.39;95.74
70154;DHT22;57519;51.494;-2.626;2023-03-09T05:02:07;1.34;95.68
70154;DHT22;57519;51.494;-2.626;2023-03-09T05:04:32;1.36;95.73
70154;DHT22;57519;51.494;-2.626;2023-03-09T05:06:58;1.34;95.87
70154;DHT22;57519;51.494;-2.626;2023-03-09T05:09:24;1.34;95.96
70154;DHT22;57519;51.494;-2.626;2023-03-09T05:11:49;1.38;96.09
70154;DHT22;57519;51.494;-2.626;2023-03-09T05:14:18;1.35;96.12
70154;DHT22;57519;51.494;-2.626;2023-03-09T05:16:45;1.35;96.08
70154;DHT22;57519;51.494;-2.626;2023-03-09T05:19:11;1.34;96.16
70154;DHT22;57519;51.494;-2.626;2023-03-09T05:21:37;1.35;96.14
70154;DHT22;57519;51.494;-2.626;2023-03-09T05:24:04;1.35;96.20
70154;DHT22;57519;51.494;-2.626;2023-03-09T05:26:29;1.39;96.16
70154;DHT22;57519;51.494;-2.626;2023-03-09T05:28:55;1.39;96.14
70154;DHT22;57519;51.494;-2.626;2023-03-09T05:31:21;1.32;96.11
70154;DHT22;57519;51.494;-2.626;2023-03-09T05:33:46;1.32;96.07
70154;DHT22;57519;51.494;-2.626;2023-03-09T05:36:18;1.41;96.15
70154;DHT22;57519;51.494;-2.626;2023-03-09T05:38:44;1.41;96.20
70154;DHT22;57519;51.494;-2.626;2023-03-09T05:41:09;1.39;96.17
70154;DHT22;57519;51.494;-2.626;2023-03-09T05:43:35;1.41;96.24
70154;DHT22;57519;51.494;-2.626;2023-03-09T05:46:02;1.45;96.22
70154;DHT22;57519;51.494;-2.626;2023-03-09T05:48:28;1.43;96.11
70154;DHT22;57519;51.494;-2.626;2023-03-09T05:50:53;1.46;96.17
70154;DHT22;57519;51.494;-2.626;2023-03-09T05:53:19;1.45;96.12
70154;DHT22;57519;51.494;-2.626;2023-03-09T05:55:50;1.43;96.12
70154;DHT22;57519;51.494;-2.626;2023-03-09T05:58:17;1.43;96.14
70154;DHT22;57519;51.494;-2.626;2023-03-09T06:00:43;1.39;96.14
70154;DHT22;57519;51.494;-2.626;2023-03-09T06:03:08;1.43;96.18
70154;DHT22;57519;51.494;-2.626;2023-03-09T06:05:34;1.39;96.19
70154;DHT22;57519;51.494;-2.626;2023-03-09T06:08:00;1.36;96.26
70154;DHT22;57519;51.494;-2.626;2023-03-09T06:10:25;1.43;96.21
70154;DHT22;57519;51.494;-2.626;2023-03-09T06:12:51;1.39;96.13
70154;DHT22;57519;51.494;-2.626;2023-03-09T06:15:16;1.39;96.10
70154;DHT22;57519;51.494;-2.626;2023-03-09T06:17:42;1.41;96.11
70154;DHT22;57519;51.494;-2.626;2023-03-09T06:20:09;1.42;96.18
70154;DHT22;57519;51.494;-2.626;2023-03-09T06:22:35;1.41;96.16
70154;DHT22;57519;51.494;-2.626;2023-03-09T06:25:00;1.39;96.25
70154;DHT22;57519;51.494;-2.626;2023-03-09T06:27:26;1.39;96.26
70154;DHT22;57519;51.494;-2.626;2023-03-09T06:30:11;1.42;96.21
70154;DHT22;57519;51.494;-2.626;2023-03-09T06:32:38;1.43;96.11
70154;DHT22;57519;51.494;-2.626;2023-03-09T06:35:04;1.46;96.11
70154;DHT22;57519;51.494;-2.626;2023-03-09T06:37:30;1.53;96.18
70154;DHT22;57519;51.494;-2.626;2023-03-09T06:39:55;1.52;96.06
70154;DHT22;57519;51.494;-2.626;2023-03-09T06:42:21;1.52;96.03
70154;DHT22;57519;51.494;-2.626;2023-03-09T06:44:49;1.55;95.83
70154;DHT22;57519;51.494;-2.626;2023-03-09T06:47:15;1.53;95.77
70154;DHT22;57519;51.494;-2.626;2023-03-09T06:49:41;1.49;95.93
70154;DHT22;57519;51.494;-2.626;2023-03-09T06:52:09;1.49;95.93
70154;DHT22;57519;51.494;-2.626;2023-03-09T06:54:34;1.52;95.91
70154;DHT22;57519;51.494;-2.626;2023-03-09T06:56:59;1.55;95.80
70154;DHT22;57519;51.494;-2.626;2023-03-09T06:59:28;1.52;95.78
70154;DHT22;57519;51.494;-2.626;2023-03-09T07:01:55;1.52;96.00
70154;DHT22;57519;51.494;-2.626;2023-03-09T07:04:21;1.58;96.14
70154;DHT22;57519;51.494;-2.626;2023-03-09T07:06:47;1.58;96.14
70154;DHT22;57519;51.494;-2.626;2023-03-09T07:09:12;1.56;96.21
70154;DHT22;57519;51.494;-2.626;2023-03-09T07:11:38;1.56;96.18
70154;DHT22;57519;51.494;-2.626;2023-03-09T07:14:03;1.52;96.07
70154;DHT22;57519;51.494;-2.626;2023-03-09T07:16:29;1.58;96.25
70154;DHT22;57519;51.494;-2.626;2023-03-09T07:18:55;1.62;96.21
70154;DHT22;57519;51.494;-2.626;2023-03-09T07:21:21;1.67;96.22
70154;DHT22;57519;51.494;-2.626;2023-03-09T07:23:46;1.71;96.30
70154;DHT22;57519;51.494;-2.626;2023-03-09T07:26:13;1.63;96.22
70154;DHT22;57519;51.494;-2.626;2023-03-09T07:28:38;1.64;96.13
70154;DHT22;57519;51.494;-2.626;2023-03-09T07:31:08;1.67;95.98
70154;DHT22;57519;51.494;-2.626;2023-03-09T07:33:34;1.70;96.12
70154;DHT22;57519;51.494;-2.626;2023-03-09T07:36:02;1.73;96.10
70154;DHT22;57519;51.494;-2.626;2023-03-09T07:38:28;1.70;95.95
70154;DHT22;57519;51.494;-2.626;2023-03-09T07:40:56;1.66;96.06
70154;DHT22;57519;51.494;-2.626;2023-03-09T07:43:22;1.71;96.24
70154;DHT22;57519;51.494;-2.626;2023-03-09T07:45:47;1.73;96.23
70154;DHT22;57519;51.494;-2.626;2023-03-09T07:48:13;1.73;96.26
70154;DHT22;57519;51.494;-2.626;2023-03-09T07:50:39;1.74;96.06
70154;DHT22;57519;51.494;-2.626;2023-03-09T07:53:04;1.73;96.08
70154;DHT22;57519;51.494;-2.626;2023-03-09T07:55:30;1.80;96.20
70154;DHT22;57519;51.494;-2.626;2023-03-09T07:58:00;1.73;96.18
70154;DHT22;57519;51.494;-2.626;2023-03-09T08:00:27;1.76;96.14
70154;DHT22;57519;51.494;-2.626;2023-03-09T08:02:54;1.80;96.14
70154;DHT22;57519;51.494;-2.626;2023-03-09T08:05:20;1.86;96.12
70154;DHT22;57519;51.494;-2.626;2023-03-09T08:07:46;1.90;96.01
70154;DHT22;57519;51.494;-2.626;2023-03-09T08:10:12;1.91;95.98
70154;DHT22;57519;51.494;-2.626;2023-03-09T08:12:41;1.93;96.04
70154;DHT22;57519;51.494;-2.626;2023-03-09T08:15:06;1.88;95.90
70154;DHT22;57519;51.494;-2.626;2023-03-09T08:17:32;1.91;95.90
70154;DHT22;57519;51.494;-2.626;2023-03-09T08:19:59;1.93;95.91
70154;DHT22;57519;51.494;-2.626;2023-03-09T08:22:26;1.98;95.90
70154;DHT22;57519;51.494;-2.626;2023-03-09T08:24:52;1.93;95.84
70154;DHT22;57519;51.494;-2.626;2023-03-09T08:27:17;2.03;95.84
70154;DHT22;57519;51.494;-2.626;2023-03-09T08:29:43;2.01;95.85
70154;DHT22;57519;51.494;-2.626;2023-03-09T08:32:09;2.04;95.81
70154;DHT22;57519;51.494;-2.626;2023-03-09T08:34:37;2.06;95.91
70154;DHT22;57519;51.494;-2.626;2023-03-09T08:37:02;2.00;95.63
70154;DHT22;57519;51.494;-2.626;2023-03-09T08:39:28;2.04;95.62
70154;DHT22;57519;51.494;-2.626;2023-03-09T08:41:53;2.04;95.68
70154;DHT22;57519;51.494;-2.626;2023-03-09T08:44:20;2.11;95.84
70154;DHT22;57519;51.494;-2.626;2023-03-09T08:46:45;2.11;95.76
70154;DHT22;57519;51.494;-2.626;2023-03-09T08:49:11;2.10;95.77
70154;DHT22;57519;51.494;-2.626;2023-03-09T08:51:36;2.14;95.69
70154;DHT22;57519;51.494;-2.626;2023-03-09T08:54:01;2.13;95.63
70154;DHT22;57519;51.494;-2.626;2023-03-09T08:56:27;2.15;95.69
70154;DHT22;57519;51.494;-2.626;2023-03-09T08:58:52;2.22;95.69
70154;DHT22;57519;51.494;-2.626;2023-03-09T09:01:18;2.24;95.69
70154;DHT22;57519;51.494;-2.626;2023-03-09T09:03:44;2.24;95.65
70154;DHT22;57519;51.494;-2.626;2023-03-09T09:06:14;2.35;95.69
70154;DHT22;57519;51.494;-2.626;2023-03-09T09:08:40;2.41;95.73
70154;DHT22;57519;51.494;-2.626;2023-03-09T09:11:11;2.31;95.39
70154;DHT22;57519;51.494;-2.626;2023-03-09T09:13:37;2.41;95.55
70154;DHT22;57519;51.494;-2.626;2023-03-09T09:16:04;2.41;95.55
70154;DHT22;57519;51.494;-2.626;2023-03-09T09:18:34;2.42;95.56
70154;DHT22;57519;51.494;-2.626;2023-03-09T09:21:12;2.41;95.45
70154;DHT22;57519;51.494;-2.626;2023-03-09T09:23:39;2.45;95.57
70154;DHT22;57519;51.494;-2.626;2023-03-09T09:26:06;2.49;95.61
70154;DHT22;57519;51.494;-2.626;2023-03-09T09:28:32;2.49;95.36
70154;DHT22;57519;51.494;-2.626;2023-03-09T09:30:59;2.52;95.35
70154;DHT22;57519;51.494;-2.626;2023-03-09T09:33:30;2.55;95.35
70154;DHT22;57519;51.494;-2.626;2023-03-09T09:38:24;2.53;95.67
70154;DHT22;57519;51.494;-2.626;2023-03-09T09:40:52;2.48;95.63
70154;DHT22;57519;51.494;-2.626;2023-03-09T09:43:18;2.50;95.72
70154;DHT22;57519;51.494;-2.626;2023-03-09T09:45:45;2.49;95.65
70154;DHT22;57519;51.494;-2.626;2023-03-09T09:48:12;2.57;95.73
70154;DHT22;57519;51.494;-2.626;2023-03-09T09:51:00;2.69;95.85
70154;DHT22;57519;51.494;-2.626;2023-03-09T09:56:01;2.83;95.67
70154;DHT22;57519;51.494;-2.626;2023-03-09T09:58:35;2.84;95.65
70154;DHT22;57519;51.494;-2.626;2023-03-09T10:01:20;2.87;95.76
70154;DHT22;57519;51.494;-2.626;2023-03-09T10:03:49;2.79;95.60
70154;DHT22;57519;51.494;-2.626;2023-03-09T10:06:21;2.77;95.70
70154;DHT22;57519;51.494;-2.626;2023-03-09T10:09:26;2.84;95.83
70154;DHT22;57519;51.494;-2.626;2023-03-09T10:12:01;2.96;95.94
70154;DHT22;57519;51.494;-2.626;2023-03-09T10:15:06;3.00;95.71
70154;DHT22;57519;51.494;-2.626;2023-03-09T10:17:39;3.13;95.86
70154;DHT22;57519;51.494;-2.626;2023-03-09T10:20:21;3.10;95.78
70154;DHT22;57519;51.494;-2.626;2023-03-09T10:22:49;3.24;95.76
70154;DHT22;57519;51.494;-2.626;2023-03-09T10:25:19;3.28;95.36
70154;DHT22;57519;51.494;-2.626;2023-03-09T10:38:21;3.70;94.87
70154;DHT22;57519;51.494;-2.626;2023-03-09T10:40:49;3.69;94.61
70154;DHT22;57519;51.494;-2.626;2023-03-09T10:43:30;3.68;94.62
70154;DHT22;57519;51.494;-2.626;2023-03-09T10:46:21;3.78;94.66
70154;DHT22;57519;51.494;-2.626;2023-03-09T10:48:48;3.78;94.91
70154;DHT22;57519;51.494;-2.626;2023-03-09T10:51:53;3.68;94.90
70154;DHT22;57519;51.494;-2.626;2023-03-09T10:54:24;3.73;95.30
70154;DHT22;57519;51.494;-2.626;2023-03-09T10:56:50;3.70;95.36
70154;DHT22;57519;51.494;-2.626;2023-03-09T10:59:27;3.72;95.20
70154;DHT22;57519;51.494;-2.626;2023-03-09T11:01:56;3.90;95.33
70154;DHT22;57519;51.494;-2.626;2023-03-09T11:06:51;4.06;94.89
70154;DHT22;57519;51.494;-2.626;2023-03-09T11:12:07;4.10;95.07
70154;DHT22;57519;51.494;-2.626;2023-03-09T11:14:43;4.18;95.09
70154;DHT22;57519;51.494;-2.626;2023-03-09T11:22:39;4.52;94.59
70154;DHT22;57519;51.494;-2.626;2023-03-09T11:25:42;4.47;94.67
70154;DHT22;57519;51.494;-2.626;2023-03-09T11:28:15;4.51;94.73
70154;DHT22;57519;51.494;-2.626;2023-03-09T11:30:42;4.58;94.78
70154;DHT22;57519;51.494;-2.626;2023-03-09T11:33:10;4.44;94.78
70154;DHT22;57519;51.494;-2.626;2023-03-09T11:35:37;4.61;94.71
70154;DHT22;57519;51.494;-2.626;2023-03-09T11:38:06;4.87;94.75
70154;DHT22;57519;51.494;-2.626;2023-03-09T11:40:34;4.90;94.04
70154;DHT22;57519;51.494;-2.626;2023-03-09T11:43:18;4.92;94.07
70154;DHT22;57519;51.494;-2.626;2023-03-09T11:45:45;4.68;94.05
70154;DHT22;57519;51.494;-2.626;2023-03-09T11:48:26;4.82;94.43
70154;DHT22;57519;51.494;-2.626;2023-03-09T11:51:10;4.65;94.06
70154;DHT22;57519;51.494;-2.626;2023-03-09T11:53:41;4.51;94.26
70154;DHT22;57519;51.494;-2.626;2023-03-09T11:58:38;4.42;94.84
70154;DHT22;57519;51.494;-2.626;2023-03-09T12:01:31;4.58;95.05
70154;DHT22;57519;51.494;-2.626;2023-03-09T12:04:02;4.58;94.80
70154;DHT22;57519;51.494;-2.626;2023-03-09T12:06:48;4.62;94.74
70154;DHT22;57519;51.494;-2.626;2023-03-09T12:09:33;4.71;94.56
70154;DHT22;57519;51.494;-2.626;2023-03-09T12:15:07;4.85;94.36
70154;DHT22;57519;51.494;-2.626;2023-03-09T12:17:46;4.79;94.43
70154;DHT22;57519;51.494;-2.626;2023-03-09T12:22:55;4.83;94.56
70154;DHT22;57519;51.494;-2.626;2023-03-09T12:25:23;4.97;94.73
70154;DHT22;57519;51.494;-2.626;2023-03-09T12:27:53;5.00;94.66
70154;DHT22;57519;51.494;-2.626;2023-03-09T12:30:20;5.14;94.59
70154;DHT22;57519;51.494;-2.626;2023-03-09T12:32:47;5.30;93.90
70154;DHT22;57519;51.494;-2.626;2023-03-09T12:38:27;5.20;93.76
70154;DHT22;57519;51.494;-2.626;2023-03-09T12:40:52;5.13;94.09
70154;DHT22;57519;51.494;-2.626;2023-03-09T12:45:49;5.40;94.55
70154;DHT22;57519;51.494;-2.626;2023-03-09T13:01:10;5.83;94.64
70154;DHT22;57519;51.494;-2.626;2023-03-09T13:06:38;5.89;94.99
70154;DHT22;57519;51.494;-2.626;2023-03-09T13:11:44;5.86;94.45
70154;DHT22;57519;51.494;-2.626;2023-03-09T13:14:15;5.89;94.31
70154;DHT22;57519;51.494;-2.626;2023-03-09T13:24:16;6.00;94.15
70154;DHT22;57519;51.494;-2.626;2023-03-09T13:26:43;5.89;94.20
70154;DHT22;57519;51.494;-2.626;2023-03-09T13:29:10;5.82;94.51
70154;DHT22;57519;51.494;-2.626;2023-03-09T13:31:40;5.83;94.61
70154;DHT22;57519;51.494;-2.626;2023-03-09T13:34:16;5.85;94.74
70154;DHT22;57519;51.494;-2.626;2023-03-09T13:36:42;5.86;94.67
70154;DHT22;57519;51.494;-2.626;2023-03-09T13:39:16;6.05;94.99
70154;DHT22;57519;51.494;-2.626;2023-03-09T13:41:43;6.03;94.44
70154;DHT22;57519;51.494;-2.626;2023-03-09T13:44:17;5.95;94.54
70154;DHT22;57519;51.494;-2.626;2023-03-09T13:46:46;5.86;94.69
70154;DHT22;57519;51.494;-2.626;2023-03-09T13:49:33;5.83;94.83
70154;DHT22;57519;51.494;-2.626;2023-03-09T13:52:11;5.73;94.64
70154;DHT22;57519;51.494;-2.626;2023-03-09T13:57:18;5.75;94.74
70154;DHT22;57519;51.494;-2.626;2023-03-09T13:59:58;5.78;95.12
70154;DHT22;57519;51.494;-2.626;2023-03-09T14:02:29;5.86;95.29
70154;DHT22;57519;51.494;-2.626;2023-03-09T14:07:23;5.82;95.40
70154;DHT22;57519;51.494;-2.626;2023-03-09T14:10:00;5.85;95.43
70154;DHT22;57519;51.494;-2.626;2023-03-09T14:12:37;6.06;95.63
70154;DHT22;57519;51.494;-2.626;2023-03-09T14:15:06;6.09;95.15
70154;DHT22;57519;51.494;-2.626;2023-03-09T14:17:33;6.12;95.00
70154;DHT22;57519;51.494;-2.626;2023-03-09T14:20:00;6.16;95.10
70154;DHT22;57519;51.494;-2.626;2023-03-09T14:22:28;6.09;95.11
70154;DHT22;57519;51.494;-2.626;2023-03-09T14:24:54;6.20;95.40
70154;DHT22;57519;51.494;-2.626;2023-03-09T14:27:31;6.13;95.21
70154;DHT22;57519;51.494;-2.626;2023-03-09T14:33:03;6.14;94.76
70154;DHT22;57519;51.494;-2.626;2023-03-09T14:35:37;5.99;94.48
70154;DHT22;57519;51.494;-2.626;2023-03-09T14:38:20;6.05;94.60
70154;DHT22;57519;51.494;-2.626;2023-03-09T14:40:47;6.26;94.72
70154;DHT22;57519;51.494;-2.626;2023-03-09T14:43:41;6.30;93.90
70154;DHT22;57519;51.494;-2.626;2023-03-09T14:46:22;6.38;94.18
70154;DHT22;57519;51.494;-2.626;2023-03-09T14:48:58;6.51;94.33
70154;DHT22;57519;51.494;-2.626;2023-03-09T14:51:26;6.78;94.56
70154;DHT22;57519;51.494;-2.626;2023-03-09T14:54:11;6.84;93.89
70154;DHT22;57519;51.494;-2.626;2023-03-09T14:56:37;6.91;93.64
70154;DHT22;57519;51.494;-2.626;2023-03-09T14:59:16;6.98;93.76
70154;DHT22;57519;51.494;-2.626;2023-03-09T15:01:45;6.96;93.99
70154;DHT22;57519;51.494;-2.626;2023-03-09T15:04:16;6.86;93.91
70154;DHT22;57519;51.494;-2.626;2023-03-09T15:06:42;6.89;93.71
70154;DHT22;57519;51.494;-2.626;2023-03-09T15:09:10;7.03;93.57
70154;DHT22;57519;51.494;-2.626;2023-03-09T15:11:35;7.10;93.41
70154;DHT22;57519;51.494;-2.626;2023-03-09T15:14:08;7.19;93.26
70154;DHT22;57519;51.494;-2.626;2023-03-09T15:16:34;7.31;93.80
70154;DHT22;57519;51.494;-2.626;2023-03-09T15:19:00;7.34;93.43
70154;DHT22;57519;51.494;-2.626;2023-03-09T15:21:25;7.26;93.51
70154;DHT22;57519;51.494;-2.626;2023-03-09T15:23:51;7.15;93.43
70154;DHT22;57519;51.494;-2.626;2023-03-09T15:26:16;7.16;93.71
70154;DHT22;57519;51.494;-2.626;2023-03-09T15:28:41;7.17;93.64
70154;DHT22;57519;51.494;-2.626;2023-03-09T15:31:11;7.07;93.55
70154;DHT22;57519;51.494;-2.626;2023-03-09T15:33:38;6.99;93.47
70154;DHT22;57519;51.494;-2.626;2023-03-09T15:36:07;7.15;94.23
70154;DHT22;57519;51.494;-2.626;2023-03-09T15:38:33;7.13;94.03
70154;DHT22;57519;51.494;-2.626;2023-03-09T15:40:59;7.03;94.06
70154;DHT22;57519;51.494;-2.626;2023-03-09T15:43:25;6.84;93.47
70154;DHT22;57519;51.494;-2.626;2023-03-09T15:45:50;6.74;93.80
70154;DHT22;57519;51.494;-2.626;2023-03-09T15:48:16;6.58;94.08
70154;DHT22;57519;51.494;-2.626;2023-03-09T15:50:48;6.50;94.24
70154;DHT22;57519;51.494;-2.626;2023-03-09T15:53:14;6.41;94.50
70154;DHT22;57519;51.494;-2.626;2023-03-09T15:55:39;6.44;94.54
70154;DHT22;57519;51.494;-2.626;2023-03-09T15:58:04;6.40;94.47
70154;DHT22;57519;51.494;-2.626;2023-03-09T16:00:31;6.34;94.83
70154;DHT22;57519;51.494;-2.626;2023-03-09T16:03:01;6.27;94.93
70154;DHT22;57519;51.494;-2.626;2023-03-09T16:05:27;6.29;94.98
70154;DHT22;57519;51.494;-2.626;2023-03-09T16:07:53;6.20;95.10
70154;DHT22;57519;51.494;-2.626;2023-03-09T16:10:18;6.17;95.27
70154;DHT22;57519;51.494;-2.626;2023-03-09T16:12:45;6.16;95.46
70154;DHT22;57519;51.494;-2.626;2023-03-09T16:15:10;6.09;95.73
70154;DHT22;57519;51.494;-2.626;2023-03-09T16:17:36;6.07;95.90
70154;DHT22;57519;51.494;-2.626;2023-03-09T16:20:01;6.06;96.02
70154;DHT22;57519;51.494;-2.626;2023-03-09T16:22:27;6.12;96.32
70154;DHT22;57519;51.494;-2.626;2023-03-09T16:24:52;6.14;96.58
70154;DHT22;57519;51.494;-2.626;2023-03-09T16:27:18;6.26;96.64
70154;DHT22;57519;51.494;-2.626;2023-03-09T16:29:43;6.31;96.73
70154;DHT22;57519;51.494;-2.626;2023-03-09T16:32:09;6.36;96.73
70154;DHT22;57519;51.494;-2.626;2023-03-09T16:34:35;6.37;96.70
70154;DHT22;57519;51.494;-2.626;2023-03-09T16:37:03;6.34;96.52
70154;DHT22;57519;51.494;-2.626;2023-03-09T16:39:28;6.50;96.58
70154;DHT22;57519;51.494;-2.626;2023-03-09T16:41:55;6.63;96.73
70154;DHT22;57519;51.494;-2.626;2023-03-09T16:44:22;6.64;96.62
70154;DHT22;57519;51.494;-2.626;2023-03-09T16:46:53;6.69;96.54
70154;DHT22;57519;51.494;-2.626;2023-03-09T16:49:20;6.67;96.51
70154;DHT22;57519;51.494;-2.626;2023-03-09T16:51:45;6.69;96.44
70154;DHT22;57519;51.494;-2.626;2023-03-09T16:54:11;6.67;96.32
70154;DHT22;57519;51.494;-2.626;2023-03-09T16:56:36;6.69;96.36
70154;DHT22;57519;51.494;-2.626;2023-03-09T16:59:01;6.64;96.46
70154;DHT22;57519;51.494;-2.626;2023-03-09T17:01:27;6.57;96.40